createdAt,value
2019-02-22T00:00:32.428Z,89.78
2019-02-22T00:03:03.139Z,90.07
2019-02-22T00:05:33.984Z,89.67
2019-02-22T00:08:05.138Z,89.98
2019-02-22T00:10:35.588Z,89.91
2019-02-22T00:13:06.389Z,89.96
2019-02-22T00:15:37.124Z,89.81
2019-02-22T00:18:08.055Z,89.71
2019-02-22T00:20:41.167Z,89.56
2019-02-22T00:23:11.365Z,89.44
2019-02-22T00:25:42.104Z,89.06
2019-02-22T00:28:12.502Z,88.94
2019-02-22T00:30:43.483Z,89.09
2019-02-22T00:33:14.590Z,89.18
2019-02-22T00:35:45.994Z,89.30
2019-02-22T00:38:16.793Z,89.57
2019-02-22T00:40:47.422Z,89.71
2019-02-22T00:43:18.315Z,89.62
2019-02-22T00:45:49.108Z,89.73
2019-02-22T00:48:19.870Z,89.69
2019-02-22T00:50:50.723Z,89.65
2019-02-22T00:53:21.663Z,89.58
2019-02-22T00:55:52.546Z,89.58
2019-02-22T00:58:23.522Z,89.77
2019-02-22T01:00:56.000Z,89.93
2019-02-22T01:03:26.530Z,89.66
2019-02-22T01:05:58.795Z,89.73
2019-02-22T01:08:29.684Z,89.60
2019-02-22T01:11:00.533Z,89.51
2019-02-22T01:13:31.403Z,89.51
2019-02-22T01:16:02.263Z,89.29
2019-02-22T01:18:33.181Z,89.44
2019-02-22T01:21:07.205Z,88.88
2019-02-22T01:23:38.214Z,89.30
2019-02-22T01:26:09.070Z,89.78
2019-02-22T01:28:40.578Z,90.13
2019-02-22T01:31:12.446Z,90.10
2019-02-22T01:33:43.294Z,90.22
2019-02-22T01:36:16.297Z,90.41
2019-02-22T01:38:47.040Z,90.47
2019-02-22T01:41:17.853Z,90.22
2019-02-22T01:43:48.598Z,90.20
2019-02-22T01:46:19.347Z,90.32
2019-02-22T01:48:52.540Z,89.93
2019-02-22T01:51:24.688Z,90.11
2019-02-22T01:53:55.129Z,89.87
2019-02-22T01:56:26.077Z,89.69
2019-02-22T01:58:56.807Z,89.54
2019-02-22T02:01:30.311Z,89.31
2019-02-22T02:04:01.142Z,89.18
2019-02-22T02:06:33.948Z,89.38
2019-02-22T02:09:05.971Z,89.16
2019-02-22T02:11:36.836Z,89.49
2019-02-22T02:14:07.632Z,89.48
2019-02-22T02:16:38.685Z,89.59
2019-02-22T02:19:09.422Z,89.47
2019-02-22T02:21:39.933Z,89.41
2019-02-22T02:24:11.922Z,89.38
2019-02-22T02:26:42.796Z,89.45
2019-02-22T02:29:13.636Z,89.43
2019-02-22T02:31:44.475Z,89.57
2019-02-22T02:34:15.342Z,89.44
2019-02-22T02:36:46.394Z,89.24
2019-02-22T02:39:17.163Z,89.21
2019-02-22T02:41:49.612Z,89.27
2019-02-22T02:44:20.453Z,88.79
2019-02-22T02:46:51.164Z,88.66
2019-02-22T02:49:25.773Z,88.72
2019-02-22T02:51:56.974Z,87.92
2019-02-22T02:54:27.686Z,88.43
2019-02-22T02:56:58.826Z,88.18
2019-02-22T02:59:29.562Z,88.10
2019-02-22T03:02:01.264Z,88.28
2019-02-22T03:04:32.036Z,88.33
2019-02-22T03:07:10.403Z,87.54
2019-02-22T03:09:41.186Z,88.38
2019-02-22T03:12:11.870Z,88.27
2019-02-22T03:14:42.674Z,88.27
2019-02-22T03:17:13.491Z,88.33
2019-02-22T03:19:47.134Z,88.13
2019-02-22T03:22:17.716Z,88.12
2019-02-22T03:24:48.592Z,87.84
2019-02-22T03:27:19.407Z,87.11
2019-02-22T03:29:51.361Z,87.71
2019-02-22T03:32:24.782Z,87.60
2019-02-22T03:34:55.628Z,87.18
2019-02-22T03:37:26.572Z,87.40
2019-02-22T03:39:57.396Z,87.23
2019-02-22T03:42:28.244Z,86.87
2019-02-22T03:44:58.700Z,86.56
2019-02-22T03:47:29.601Z,86.81
2019-02-22T03:50:00.556Z,86.72
2019-02-22T03:52:33.092Z,86.29
2019-02-22T03:55:04.568Z,86.06
2019-02-22T03:57:35.407Z,85.59
2019-02-22T04:00:09.519Z,86.00
2019-02-22T04:02:40.637Z,85.61
2019-02-22T04:05:11.232Z,84.80
2019-02-22T04:07:42.306Z,85.30
2019-02-22T04:10:13.188Z,84.35
2019-02-22T04:12:44.114Z,83.67
2019-02-22T04:15:14.927Z,84.54
2019-02-22T04:17:45.737Z,84.79
2019-02-22T04:20:16.625Z,84.70
2019-02-22T04:22:48.180Z,84.87
2019-02-22T04:25:19.217Z,84.01
2019-02-22T04:27:50.333Z,84.01
2019-02-22T04:30:21.199Z,83.73
2019-02-22T04:32:52.405Z,84.14
2019-02-22T04:35:23.226Z,84.91
2019-02-22T04:37:53.890Z,84.51
2019-02-22T04:40:24.949Z,84.17
2019-02-22T04:42:55.891Z,83.89
2019-02-22T04:45:26.650Z,83.69
2019-02-22T04:47:57.702Z,84.65
2019-02-22T04:50:28.446Z,84.41
2019-02-22T04:53:00.331Z,84.57
2019-02-22T04:55:31.103Z,84.33
2019-02-22T04:58:03.423Z,84.42
2019-02-22T05:00:34.290Z,84.33
2019-02-22T05:03:05.163Z,84.36
2019-02-22T05:05:36.932Z,84.12
2019-02-22T05:08:07.832Z,83.12
2019-02-22T05:10:38.901Z,82.39
2019-02-22T05:13:12.361Z,82.63
2019-02-22T05:15:43.809Z,82.34
2019-02-22T05:18:14.693Z,83.77
2019-02-22T05:20:45.495Z,83.38
2019-02-22T05:23:16.360Z,83.77
2019-02-22T05:25:50.553Z,83.43
2019-02-22T05:28:21.411Z,83.46
2019-02-22T05:30:52.358Z,83.01
2019-02-22T05:33:23.078Z,83.91
2019-02-22T05:35:53.882Z,84.76
2019-02-22T05:38:24.671Z,84.13
2019-02-22T05:40:55.380Z,84.58
2019-02-22T05:43:26.185Z,83.99
2019-02-22T05:45:57.119Z,83.49
2019-02-22T05:48:27.877Z,84.48
2019-02-22T05:50:59.189Z,84.70
2019-02-22T05:53:29.972Z,85.48
2019-02-22T05:56:00.829Z,84.19
2019-02-22T05:58:33.090Z,84.05
2019-02-22T06:01:06.634Z,83.26
2019-02-22T06:03:36.387Z,84.85
2019-02-22T06:06:06.873Z,84.59
2019-02-22T06:08:37.626Z,83.31
2019-02-22T06:11:08.609Z,84.16
2019-02-22T06:13:39.465Z,83.57
2019-02-22T06:16:11.702Z,82.90
2019-02-22T06:18:42.533Z,82.52
2019-02-22T06:21:15.358Z,82.47
2019-02-22T06:23:46.075Z,82.95
2019-02-22T06:26:16.813Z,82.69
2019-02-22T06:28:47.247Z,83.37
2019-02-22T06:31:18.053Z,83.17
2019-02-22T06:33:48.717Z,83.49
2019-02-22T06:36:19.441Z,81.95
2019-02-22T06:38:50.239Z,81.16
2019-02-22T06:41:21.293Z,81.41
2019-02-22T06:43:51.699Z,81.60
2019-02-22T06:46:22.763Z,80.79
2019-02-22T06:48:53.502Z,81.20
2019-02-22T06:51:24.675Z,79.71
2019-02-22T06:53:55.419Z,79.30
2019-02-22T06:56:26.506Z,79.79
2019-02-22T06:58:57.275Z,79.26
2019-02-22T07:01:28.187Z,80.16
2019-02-22T07:03:59.914Z,80.08
2019-02-22T07:06:30.779Z,79.42
2019-02-22T07:09:01.980Z,79.95
2019-02-22T07:11:34.752Z,79.75
2019-02-22T07:14:05.545Z,79.08
2019-02-22T07:16:36.305Z,79.03
2019-02-22T07:19:07.107Z,78.51
2019-02-22T07:21:49.371Z,77.32
2019-02-22T07:24:10.425Z,77.17
2019-02-22T07:26:41.164Z,76.44
2019-02-22T07:29:11.986Z,76.29
2019-02-22T07:31:42.867Z,76.91
2019-02-22T07:34:13.663Z,75.71
2019-02-22T07:36:44.528Z,73.49
2019-02-22T07:39:27.024Z,73.46
2019-02-22T07:41:47.621Z,73.42
2019-02-22T07:44:18.373Z,72.82
2019-02-22T07:46:52.378Z,72.63
2019-02-22T07:49:28.633Z,71.49
2019-02-22T07:51:59.865Z,71.56
2019-02-22T07:54:30.247Z,72.30
2019-02-22T07:57:01.187Z,72.63
2019-02-22T07:59:32.230Z,73.02
2019-02-22T08:02:03.329Z,73.43
2019-02-22T08:04:34.090Z,73.43
2019-02-22T08:07:04.889Z,73.87
2019-02-22T08:09:35.775Z,73.53
2019-02-22T08:12:06.607Z,73.27
2019-02-22T08:14:37.221Z,73.53
2019-02-22T08:17:14.857Z,74.77
2019-02-22T08:19:42.967Z,74.18
2019-02-22T08:22:13.503Z,73.92
2019-02-22T08:24:44.224Z,73.92
2019-02-22T08:27:15.271Z,73.35
2019-02-22T08:29:46.109Z,72.95
2019-02-22T08:32:17.185Z,72.63
2019-02-22T08:34:47.667Z,72.55
2019-02-22T08:37:21.363Z,72.28
2019-02-22T08:39:58.664Z,71.24
2019-02-22T08:42:24.696Z,71.66
2019-02-22T08:44:55.536Z,71.73
2019-02-22T08:47:26.373Z,71.42
2019-02-22T08:49:57.200Z,71.53
2019-02-22T08:52:29.966Z,70.29
2019-02-22T08:55:00.719Z,70.09
2019-02-22T08:57:31.104Z,69.54
2019-02-22T09:00:01.902Z,70.13
2019-02-22T09:02:32.851Z,70.35
2019-02-22T09:05:06.866Z,69.59
2019-02-22T09:07:37.871Z,69.91
2019-02-22T09:10:14.780Z,70.31
2019-02-22T09:12:45.682Z,69.10
2019-02-22T09:15:17.020Z,67.83
2019-02-22T09:17:47.762Z,67.75
2019-02-22T09:20:22.025Z,66.38
2019-02-22T09:22:52.932Z,63.36
2019-02-22T09:25:23.653Z,63.11
2019-02-22T09:27:54.156Z,63.24
2019-02-22T09:30:25.064Z,63.09
2019-02-22T09:32:56.178Z,63.07
2019-02-22T09:35:26.904Z,61.34
2019-02-22T09:37:57.876Z,60.60
2019-02-22T09:40:30.552Z,60.67
2019-02-22T09:43:01.256Z,60.98
2019-02-22T09:45:32.098Z,59.14
2019-02-22T09:48:02.484Z,58.14
2019-02-22T09:50:33.268Z,56.92
2019-02-22T09:53:05.902Z,57.06
2019-02-22T09:55:36.983Z,58.46
2019-02-22T09:58:07.828Z,57.07
2019-02-22T10:00:40.383Z,57.63
2019-02-22T10:03:13.603Z,57.96
2019-02-22T10:05:44.424Z,56.88
2019-02-22T10:08:17.005Z,56.29
2019-02-22T10:10:49.266Z,54.64
2019-02-22T10:13:21.134Z,54.96
2019-02-22T10:15:54.730Z,54.98
2019-02-22T10:18:27.105Z,53.05
2019-02-22T10:20:57.854Z,54.68
2019-02-22T10:23:28.696Z,54.56
2019-02-22T10:25:59.124Z,55.74
2019-02-22T10:28:30.159Z,53.93
2019-02-22T10:31:00.973Z,54.47
2019-02-22T10:33:36.698Z,55.55
2019-02-22T10:36:03.779Z,55.19
2019-02-22T10:38:36.087Z,55.24
2019-02-22T10:41:07.204Z,55.37
2019-02-22T10:43:38.142Z,55.60
2019-02-22T10:46:08.860Z,55.11
2019-02-22T10:48:39.280Z,55.68
2019-02-22T10:51:10.044Z,55.17
2019-02-22T10:53:40.718Z,54.81
2019-02-22T10:56:11.940Z,55.08
2019-02-22T10:58:42.698Z,55.18
2019-02-22T11:01:13.480Z,54.17
2019-02-22T11:03:44.225Z,54.72
2019-02-22T11:06:14.946Z,53.75
2019-02-22T11:08:45.781Z,52.35
2019-02-22T11:11:19.786Z,51.87
2019-02-22T11:13:50.646Z,52.80
2019-02-22T11:16:21.389Z,51.55
2019-02-22T11:18:52.202Z,52.69
2019-02-22T11:21:22.942Z,53.07
2019-02-22T11:23:53.659Z,54.41
2019-02-22T11:26:24.413Z,53.71
2019-02-22T11:28:57.821Z,54.17
2019-02-22T11:31:28.625Z,53.83
2019-02-22T11:33:59.038Z,53.80
2019-02-22T11:36:29.814Z,54.32
2019-02-22T11:39:00.844Z,54.61
2019-02-22T11:41:31.223Z,54.49
2019-02-22T11:44:02.106Z,53.71
2019-02-22T11:46:32.945Z,54.28
2019-02-22T11:49:03.426Z,53.53
2019-02-22T11:51:34.107Z,54.54
2019-02-22T11:54:05.874Z,53.51
2019-02-22T11:56:36.690Z,53.84
2019-02-22T11:59:07.765Z,53.39
2019-02-22T12:01:38.579Z,53.76
2019-02-22T12:04:09.314Z,53.46
2019-02-22T12:06:40.048Z,53.81
2019-02-22T12:09:10.889Z,53.47
2019-02-22T12:11:41.716Z,54.26
2019-02-22T12:14:12.450Z,53.76
2019-02-22T12:16:43.296Z,53.48
2019-02-22T12:19:14.429Z,54.36
2019-02-22T12:21:45.168Z,53.80
2019-02-22T12:24:18.529Z,53.88
2019-02-22T12:26:49.413Z,53.72
2019-02-22T12:29:19.911Z,53.37
2019-02-22T12:31:50.662Z,52.46
2019-02-22T12:34:21.423Z,52.47
2019-02-22T12:36:52.341Z,53.39
2019-02-22T12:39:23.245Z,53.97
2019-02-22T12:41:54.015Z,53.93
2019-02-22T12:44:24.761Z,53.94
2019-02-22T12:46:55.597Z,53.06
2019-02-22T12:49:26.440Z,52.26
2019-02-22T12:51:57.364Z,52.29
2019-02-22T12:54:30.624Z,52.01
2019-02-22T12:57:00.765Z,52.78
2019-02-22T12:59:31.621Z,52.37
2019-02-22T13:02:02.868Z,52.88
2019-02-22T13:04:33.704Z,52.60
2019-02-22T13:07:06.293Z,52.94
2019-02-22T13:09:37.241Z,51.39
2019-02-22T13:12:13.946Z,52.03
2019-02-22T13:14:40.959Z,52.38
2019-02-22T13:17:12.250Z,52.27
2019-02-22T13:19:43.047Z,52.22
2019-02-22T13:22:15.403Z,50.99
2019-02-22T13:24:46.355Z,51.45
2019-02-22T13:27:17.179Z,51.14
2019-02-22T13:29:48.432Z,49.95
2019-02-22T13:32:19.282Z,50.62
2019-02-22T13:34:51.632Z,50.81
2019-02-22T13:37:22.613Z,50.30
2019-02-22T13:39:53.422Z,49.90
2019-02-22T13:42:23.923Z,50.92
2019-02-22T13:44:56.186Z,50.02
2019-02-22T13:47:28.630Z,50.88
2019-02-22T13:49:59.698Z,49.29
2019-02-22T13:52:34.764Z,50.94
2019-02-22T13:55:03.128Z,50.15
2019-02-22T13:57:35.650Z,49.74
2019-02-22T14:00:10.632Z,50.12
2019-02-22T14:02:41.364Z,48.98
2019-02-22T14:05:12.679Z,49.60
2019-02-22T14:07:54.378Z,50.49
2019-02-22T14:10:26.440Z,50.15
2019-02-22T14:12:57.704Z,50.13
2019-02-22T14:15:37.608Z,49.94
2019-02-22T14:18:02.275Z,50.41
2019-02-22T14:20:33.097Z,51.01
2019-02-22T14:23:03.982Z,50.69
2019-02-22T14:25:34.780Z,49.98
2019-02-22T14:28:05.670Z,50.92
2019-02-22T14:30:36.462Z,51.07
2019-02-22T14:33:07.394Z,51.65
2019-02-22T14:35:38.497Z,51.12
2019-02-22T14:38:11.595Z,51.74
2019-02-22T14:40:42.362Z,50.75
2019-02-22T14:43:16.575Z,51.01
2019-02-22T14:45:50.548Z,50.82
2019-02-22T14:48:20.386Z,50.84
2019-02-22T14:50:51.142Z,52.21
2019-02-22T14:53:21.975Z,51.11
2019-02-22T14:55:52.812Z,51.78
2019-02-22T14:58:23.548Z,51.79
2019-02-22T15:00:59.150Z,51.84
2019-02-22T15:03:26.750Z,51.73
2019-02-22T15:05:57.695Z,50.51
2019-02-22T15:08:28.653Z,51.59
2019-02-22T15:11:00.083Z,51.38
2019-02-22T15:13:30.703Z,51.51
2019-02-22T15:16:03.998Z,51.52
2019-02-22T15:18:34.963Z,51.96
2019-02-22T15:21:05.492Z,50.78
2019-02-22T15:23:38.570Z,51.68
2019-02-22T15:26:08.445Z,51.11
2019-02-22T15:28:39.275Z,51.75
2019-02-22T15:31:10.040Z,52.16
2019-02-22T15:33:43.364Z,50.40
2019-02-22T15:36:16.141Z,51.43
2019-02-22T15:38:46.852Z,51.71
2019-02-22T15:41:19.332Z,52.92
2019-02-22T15:43:50.496Z,52.60
2019-02-22T15:46:21.312Z,52.50
2019-02-22T15:48:53.760Z,52.97
2019-02-22T15:51:25.188Z,54.30
2019-02-22T15:53:55.957Z,52.68
2019-02-22T15:56:26.786Z,53.85
2019-02-22T15:58:57.737Z,53.29
2019-02-22T16:01:28.838Z,52.71
2019-02-22T16:04:01.339Z,53.22
2019-02-22T16:06:32.453Z,53.10
2019-02-22T16:09:05.207Z,53.59
2019-02-22T16:11:36.458Z,52.11
2019-02-22T16:14:07.507Z,52.09
2019-02-22T16:16:39.090Z,52.25
2019-02-22T16:19:09.604Z,52.27
2019-02-22T16:21:40.335Z,51.97
2019-02-22T16:24:10.932Z,52.46
2019-02-22T16:26:41.661Z,51.85
2019-02-22T16:29:13.917Z,51.87
2019-02-22T16:31:44.287Z,52.20
2019-02-22T16:34:14.746Z,52.29
2019-02-22T16:36:45.225Z,52.74
2019-02-22T16:39:16.298Z,53.54
2019-02-22T16:41:47.086Z,52.78
2019-02-22T16:44:17.816Z,53.68
2019-02-22T16:46:48.580Z,52.88
2019-02-22T16:49:19.822Z,53.78
2019-02-22T16:51:50.638Z,54.43
2019-02-22T16:54:21.018Z,54.48
2019-02-22T16:56:51.908Z,54.40
2019-02-22T16:59:22.730Z,54.75
2019-02-22T17:01:53.482Z,54.70
2019-02-22T17:04:24.260Z,52.73
2019-02-22T17:06:54.715Z,54.50
2019-02-22T17:09:25.573Z,54.09
2019-02-22T17:12:06.151Z,54.80
2019-02-22T17:14:28.894Z,54.92
2019-02-22T17:17:00.875Z,54.63
2019-02-22T17:19:31.692Z,55.36
2019-02-22T17:22:02.140Z,53.91
2019-02-22T17:24:32.865Z,54.88
2019-02-22T17:27:05.506Z,54.55
2019-02-22T17:29:36.361Z,54.58
2019-02-22T17:32:07.196Z,55.15
2019-02-22T17:34:37.943Z,54.37
2019-02-22T17:37:08.671Z,55.03
2019-02-22T17:39:39.722Z,55.12
2019-02-22T17:42:14.762Z,54.76
2019-02-22T17:44:45.510Z,54.31
2019-02-22T17:47:16.610Z,54.76
2019-02-22T17:49:49.084Z,54.81
2019-02-22T17:52:21.582Z,54.68
2019-02-22T17:54:52.064Z,55.09
2019-02-22T17:57:25.262Z,55.23
2019-02-22T17:59:56.030Z,54.57
2019-02-22T18:02:26.559Z,55.58
2019-02-22T18:04:57.521Z,55.03
2019-02-22T18:07:28.365Z,55.89
2019-02-22T18:09:59.080Z,54.66
2019-02-22T18:12:29.818Z,55.52
2019-02-22T18:15:00.533Z,55.26
2019-02-22T18:17:31.393Z,55.83
2019-02-22T18:20:01.748Z,56.03
2019-02-22T18:22:32.742Z,56.21
2019-02-22T18:25:03.250Z,56.34
2019-02-22T18:27:34.123Z,55.14
2019-02-22T18:30:08.234Z,55.16
2019-02-22T18:32:38.697Z,55.70
2019-02-22T18:35:09.475Z,55.56
2019-02-22T18:37:40.007Z,55.01
2019-02-22T18:40:18.685Z,55.55
2019-02-22T18:42:49.582Z,56.22
2019-02-22T18:45:20.417Z,55.82
2019-02-22T18:47:51.253Z,55.52
2019-02-22T18:50:25.377Z,54.52
2019-02-22T18:52:57.663Z,54.82
2019-02-22T18:55:28.225Z,54.84
2019-02-22T18:57:59.082Z,54.83
2019-02-22T19:00:29.995Z,54.79
2019-02-22T19:03:00.900Z,55.86
2019-02-22T19:05:31.864Z,55.16
2019-02-22T19:08:02.681Z,54.83
2019-02-22T19:10:33.629Z,55.03
2019-02-22T19:13:04.453Z,55.64
2019-02-22T19:15:35.391Z,55.15
2019-02-22T19:18:05.904Z,55.26
2019-02-22T19:20:36.489Z,55.48
2019-02-22T19:23:14.599Z,56.32
2019-02-22T19:25:45.472Z,55.67
2019-02-22T19:28:17.812Z,55.59
2019-02-22T19:30:48.673Z,55.28
2019-02-22T19:33:19.870Z,55.44
2019-02-22T19:35:50.896Z,55.13
2019-02-22T19:38:21.743Z,54.28
2019-02-22T19:40:52.535Z,54.82
2019-02-22T19:43:23.387Z,54.78
2019-02-22T19:45:54.432Z,54.84
2019-02-22T19:48:25.378Z,55.09
2019-02-22T19:50:56.892Z,54.98
2019-02-22T19:53:27.637Z,54.50
2019-02-22T19:55:58.405Z,54.71
2019-02-22T19:58:29.459Z,54.94
2019-02-22T20:01:00.247Z,54.57
2019-02-22T20:03:32.256Z,54.53
2019-02-22T20:06:04.930Z,54.81
2019-02-22T20:08:35.472Z,52.88
2019-02-22T20:11:07.398Z,52.12
2019-02-22T20:13:40.137Z,52.32
2019-02-22T20:16:10.934Z,52.20
2019-02-22T20:18:41.757Z,52.20
2019-02-22T20:21:12.570Z,51.43
2019-02-22T20:23:43.515Z,50.98
2019-02-22T20:26:13.929Z,51.64
2019-02-22T20:28:44.777Z,51.66
2019-02-22T20:31:20.420Z,51.41
2019-02-22T20:33:49.111Z,51.42
2019-02-22T20:36:27.902Z,51.60
2019-02-22T20:38:52.428Z,50.10
2019-02-22T20:41:23.338Z,49.28
2019-02-22T20:43:54.099Z,49.67
2019-02-22T20:46:25.969Z,49.79
2019-02-22T20:49:00.897Z,49.18
2019-02-22T20:51:29.268Z,49.75
2019-02-22T20:54:00.145Z,49.53
2019-02-22T20:56:31.048Z,49.80
2019-02-22T20:59:01.643Z,48.71
2019-02-22T21:01:32.186Z,47.80
2019-02-22T21:04:03.105Z,47.96
2019-02-22T21:06:33.936Z,48.20
2019-02-22T21:09:10.539Z,48.29
2019-02-22T21:11:38.650Z,47.88
2019-02-22T21:14:11.129Z,47.48
2019-02-22T21:16:45.034Z,47.45
2019-02-22T21:19:15.884Z,47.32
2019-02-22T21:21:46.824Z,47.86
2019-02-22T21:24:17.871Z,47.46
2019-02-22T21:26:48.661Z,47.99
2019-02-22T21:29:20.535Z,48.39
2019-02-22T21:31:51.466Z,48.45
2019-02-22T21:34:22.219Z,48.92
2019-02-22T21:36:53.154Z,49.25
2019-02-22T21:39:23.865Z,49.49
2019-02-22T21:41:54.281Z,49.40
2019-02-22T21:44:26.589Z,49.75
2019-02-22T21:46:57.493Z,49.90
2019-02-22T21:49:28.565Z,49.92
2019-02-22T21:52:01.028Z,49.93
2019-02-22T21:54:36.397Z,50.33
2019-02-22T21:57:10.607Z,50.50
2019-02-22T21:59:41.744Z,50.97
2019-02-22T22:02:12.849Z,50.91
2019-02-22T22:04:43.719Z,51.28
2019-02-22T22:07:14.568Z,51.66
2019-02-22T22:09:45.053Z,51.76
2019-02-22T22:12:20.535Z,52.19
2019-02-22T22:14:52.902Z,52.19
2019-02-22T22:17:26.368Z,52.33
2019-02-22T22:19:57.138Z,52.56
2019-02-22T22:22:28.003Z,52.97
2019-02-22T22:24:58.816Z,52.60
2019-02-22T22:27:29.540Z,52.70
2019-02-22T22:30:00.017Z,52.69
2019-02-22T22:32:30.823Z,53.10
2019-02-22T22:35:01.640Z,53.75
2019-02-22T22:37:32.073Z,53.25
2019-02-22T22:40:02.575Z,53.47
2019-02-22T22:42:33.444Z,54.16
2019-02-22T22:45:06.030Z,53.73
2019-02-22T22:47:37.250Z,53.64
2019-02-22T22:50:12.880Z,53.87
2019-02-22T22:52:43.307Z,53.50
2019-02-22T22:55:14.169Z,53.45
2019-02-22T22:57:44.910Z,53.41
2019-02-22T23:00:35.702Z,54.27
2019-02-22T23:03:06.844Z,54.20
2019-02-22T23:05:37.695Z,54.31
2019-02-22T23:08:08.455Z,54.12
2019-02-22T23:10:39.844Z,53.94
2019-02-22T23:13:10.754Z,54.07
2019-02-22T23:15:41.465Z,53.98
2019-02-22T23:18:12.283Z,53.27
2019-02-22T23:20:45.790Z,53.47
2019-02-22T23:23:16.608Z,54.21
2019-02-22T23:25:47.009Z,53.76
2019-02-22T23:28:17.884Z,53.79
2019-02-22T23:30:48.657Z,53.87
2019-02-22T23:33:21.231Z,53.30
2019-02-22T23:35:52.735Z,53.56
2019-02-22T23:38:23.485Z,53.55
2019-02-22T23:40:54.231Z,54.04
2019-02-22T23:43:24.850Z,53.58
2019-02-22T23:45:58.287Z,53.65
2019-02-22T23:48:29.076Z,53.33
2019-02-22T23:51:10.520Z,53.97
2019-02-22T23:53:36.589Z,53.94
2019-02-22T23:56:10.600Z,53.83
2019-02-22T23:58:43.544Z,53.94
